sensor_id;sensor_type;location;lat;lon;timestamp;temperature;humidity
35305;DHT22;26433;48.034;-1.764;2022-09-01T05:02:23;20.60;84.50
35305;DHT22;26433;48.034;-1.764;2022-09-01T05:07:30;20.70;84.50
35305;DHT22;26433;48.034;-1.764;2022-09-01T05:12:35;20.70;84.50
35305;DHT22;26433;48.034;-1.764;2022-09-01T05:17:40;20.70;84.60
35305;DHT22;26433;48.034;-1.764;2022-09-01T05:22:45;20.70;84.90
35305;DHT22;26433;48.034;-1.764;2022-09-01T05:27:49;20.70;85.00
35305;DHT22;26433;48.034;-1.764;2022-09-01T05:32:55;20.70;84.90
35305;DHT22;26433;48.034;-1.764;2022-09-01T05:37:59;20.70;85.00
35305;DHT22;26433;48.034;-1.764;2022-09-01T05:43:04;20.60;85.30
35305;DHT22;26433;48.034;-1.764;2022-09-01T05:48:10;20.60;85.70
35305;DHT22;26433;48.034;-1.764;2022-09-01T05:53:14;20.60;85.90
35305;DHT22;26433;48.034;-1.764;2022-09-01T05:58:23;20.60;85.80
35305;DHT22;26433;48.034;-1.764;2022-09-01T06:03:29;20.70;85.80
35305;DHT22;26433;48.034;-1.764;2022-09-01T06:08:41;20.70;85.80
35305;DHT22;26433;48.034;-1.764;2022-09-01T06:13:50;20.80;85.70
35305;DHT22;26433;48.034;-1.764;2022-09-01T06:18:58;20.80;85.70
35305;DHT22;26433;48.034;-1.764;2022-09-01T06:24:02;20.70;86.00
35305;DHT22;26433;48.034;-1.764;2022-09-01T06:29:09;20.70;86.40
35305;DHT22;26433;48.034;-1.764;2022-09-01T06:34:19;20.70;86.70
35305;DHT22;26433;48.034;-1.764;2022-09-01T06:39:23;20.80;86.60
35305;DHT22;26433;48.034;-1.764;2022-09-01T06:44:28;20.90;86.30
35305;DHT22;26433;48.034;-1.764;2022-09-01T06:49:35;21.10;85.80
35305;DHT22;26433;48.034;-1.764;2022-09-01T06:54:42;21.10;85.60
35305;DHT22;26433;48.034;-1.764;2022-09-01T06:59:46;21.10;86.20
35305;DHT22;26433;48.034;-1.764;2022-09-01T07:04:55;21.20;86.20
35305;DHT22;26433;48.034;-1.764;2022-09-01T07:10:00;21.30;85.90
35305;DHT22;26433;48.034;-1.764;2022-09-01T07:15:24;21.30;85.90
35305;DHT22;26433;48.034;-1.764;2022-09-01T07:20:51;21.40;86.20
35305;DHT22;26433;48.034;-1.764;2022-09-01T07:26:15;21.40;86.10
35305;DHT22;26433;48.034;-1.764;2022-09-01T07:31:30;21.40;86.20
35305;DHT22;26433;48.034;-1.764;2022-09-01T07:36:57;21.50;86.40
35305;DHT22;26433;48.034;-1.764;2022-09-01T07:42:21;21.60;86.30
35305;DHT22;26433;48.034;-1.764;2022-09-01T07:47:56;21.60;86.40
35305;DHT22;26433;48.034;-1.764;2022-09-01T07:53:07;21.60;86.40
35305;DHT22;26433;48.034;-1.764;2022-09-01T07:58:13;21.70;86.40
35305;DHT22;26433;48.034;-1.764;2022-09-01T08:03:20;21.70;86.40
35305;DHT22;26433;48.034;-1.764;2022-09-01T08:08:26;21.80;86.20
35305;DHT22;26433;48.034;-1.764;2022-09-01T08:13:31;21.90;86.00
35305;DHT22;26433;48.034;-1.764;2022-09-01T08:18:42;21.90;86.00
35305;DHT22;26433;48.034;-1.764;2022-09-01T08:23:56;22.00;86.00
35305;DHT22;26433;48.034;-1.764;2022-09-01T08:28:59;22.00;86.20
35305;DHT22;26433;48.034;-1.764;2022-09-01T08:34:04;22.10;86.00
35305;DHT22;26433;48.034;-1.764;2022-09-01T08:39:09;22.30;85.70
35305;DHT22;26433;48.034;-1.764;2022-09-01T08:44:25;22.50;85.10
35305;DHT22;26433;48.034;-1.764;2022-09-01T08:49:36;22.60;84.50
35305;DHT22;26433;48.034;-1.764;2022-09-01T08:54:50;22.70;85.00
35305;DHT22;26433;48.034;-1.764;2022-09-01T08:59:55;22.60;85.10
35305;DHT22;26433;48.034;-1.764;2022-09-01T09:05:05;22.80;84.80
35305;DHT22;26433;48.034;-1.764;2022-09-01T09:10:21;22.80;84.80
35305;DHT22;26433;48.034;-1.764;2022-09-01T09:15:32;22.80;85.30
35305;DHT22;26433;48.034;-1.764;2022-09-01T09:20:40;22.80;85.10
35305;DHT22;26433;48.034;-1.764;2022-09-01T09:25:45;22.70;85.80
35305;DHT22;26433;48.034;-1.764;2022-09-01T09:30:50;22.80;85.70
35305;DHT22;26433;48.034;-1.764;2022-09-01T09:35:53;22.90;85.60
35305;DHT22;26433;48.034;-1.764;2022-09-01T09:41:01;23.00;85.40
35305;DHT22;26433;48.034;-1.764;2022-09-01T09:46:32;23.10;85.20
35305;DHT22;26433;48.034;-1.764;2022-09-01T09:51:37;23.30;84.90
35305;DHT22;26433;48.034;-1.764;2022-09-01T09:56:43;23.70;84.10
35305;DHT22;26433;48.034;-1.764;2022-09-01T10:01:47;24.00;82.90
35305;DHT22;26433;48.034;-1.764;2022-09-01T10:06:52;24.20;82.20
35305;DHT22;26433;48.034;-1.764;2022-09-01T10:11:58;24.40;82.30
35305;DHT22;26433;48.034;-1.764;2022-09-01T10:17:07;24.60;81.60
35305;DHT22;26433;48.034;-1.764;2022-09-01T10:22:11;24.60;81.80
35305;DHT22;26433;48.034;-1.764;2022-09-01T10:27:21;24.60;81.80
35305;DHT22;26433;48.034;-1.764;2022-09-01T10:32:28;24.40;82.30
35305;DHT22;26433;48.034;-1.764;2022-09-01T10:37:43;24.30;83.00
35305;DHT22;26433;48.034;-1.764;2022-09-01T10:42:49;24.10;83.90
35305;DHT22;26433;48.034;-1.764;2022-09-01T10:53:36;24.10;84.70
35305;DHT22;26433;48.034;-1.764;2022-09-01T10:58:52;24.20;84.70
35305;DHT22;26433;48.034;-1.764;2022-09-01T11:05:09;24.70;83.30
35305;DHT22;26433;48.034;-1.764;2022-09-01T11:09:47;25.00;81.90
35305;DHT22;26433;48.034;-1.764;2022-09-01T11:15:36;25.10;82.00
35305;DHT22;26433;48.034;-1.764;2022-09-01T11:20:41;25.10;81.80
35305;DHT22;26433;48.034;-1.764;2022-09-01T11:25:47;25.70;80.80
35305;DHT22;26433;48.034;-1.764;2022-09-01T11:31:39;26.70;78.30
35305;DHT22;26433;48.034;-1.764;2022-09-01T11:36:52;27.80;75.30
35305;DHT22;26433;48.034;-1.764;2022-09-01T11:41:59;28.20;73.40
35305;DHT22;26433;48.034;-1.764;2022-09-01T11:47:10;28.10;73.80
35305;DHT22;26433;48.034;-1.764;2022-09-01T11:52:20;27.70;74.60
35305;DHT22;26433;48.034;-1.764;2022-09-01T11:57:29;27.30;75.90
35305;DHT22;26433;48.034;-1.764;2022-09-01T12:02:41;27.20;76.50
35305;DHT22;26433;48.034;-1.764;2022-09-01T12:07:46;27.30;76.10
35305;DHT22;26433;48.034;-1.764;2022-09-01T12:12:59;27.50;75.40
35305;DHT22;26433;48.034;-1.764;2022-09-01T12:18:13;27.60;74.90
35305;DHT22;26433;48.034;-1.764;2022-09-01T12:23:24;27.90;74.50
35305;DHT22;26433;48.034;-1.764;2022-09-01T12:28:29;28.20;73.50
35305;DHT22;26433;48.034;-1.764;2022-09-01T12:33:35;28.40;72.80
35305;DHT22;26433;48.034;-1.764;2022-09-01T12:38:39;28.80;71.90
35305;DHT22;26433;48.034;-1.764;2022-09-01T12:43:43;29.40;70.50
35305;DHT22;26433;48.034;-1.764;2022-09-01T12:49:15;29.80;69.30
35305;DHT22;26433;48.034;-1.764;2022-09-01T12:54:22;30.00;68.10
35305;DHT22;26433;48.034;-1.764;2022-09-01T12:59:26;29.70;68.60
35305;DHT22;26433;48.034;-1.764;2022-09-01T13:04:40;29.50;69.00
35305;DHT22;26433;48.034;-1.764;2022-09-01T13:09:43;29.60;68.20
35305;DHT22;26433;48.034;-1.764;2022-09-01T13:14:47;30.00;66.80
35305;DHT22;26433;48.034;-1.764;2022-09-01T13:19:52;30.20;65.50
35305;DHT22;26433;48.034;-1.764;2022-09-01T13:24:55;30.10;64.90
35305;DHT22;26433;48.034;-1.764;2022-09-01T13:29:59;30.20;64.70
35305;DHT22;26433;48.034;-1.764;2022-09-01T13:35:05;30.50;63.30
35305;DHT22;26433;48.034;-1.764;2022-09-01T13:40:10;30.60;62.60
35305;DHT22;26433;48.034;-1.764;2022-09-01T13:45:20;30.60;62.20
35305;DHT22;26433;48.034;-1.764;2022-09-01T13:50:27;30.50;61.50
35305;DHT22;26433;48.034;-1.764;2022-09-01T13:55:51;30.20;61.40
35305;DHT22;26433;48.034;-1.764;2022-09-01T14:00:55;29.90;61.50
35305;DHT22;26433;48.034;-1.764;2022-09-01T14:06:02;29.50;61.30
35305;DHT22;26433;48.034;-1.764;2022-09-01T14:11:14;28.90;62.40
35305;DHT22;26433;48.034;-1.764;2022-09-01T14:16:17;28.50;63.70
35305;DHT22;26433;48.034;-1.764;2022-09-01T14:21:23;28.20;64.20
35305;DHT22;26433;48.034;-1.764;2022-09-01T14:26:26;28.10;64.50
35305;DHT22;26433;48.034;-1.764;2022-09-01T14:31:30;27.90;64.80
35305;DHT22;26433;48.034;-1.764;2022-09-01T14:36:35;28.10;64.70
35305;DHT22;26433;48.034;-1.764;2022-09-01T14:41:39;28.10;64.30
35305;DHT22;26433;48.034;-1.764;2022-09-01T14:46:43;28.00;64.30
35305;DHT22;26433;48.034;-1.764;2022-09-01T14:51:49;27.90;64.50
35305;DHT22;26433;48.034;-1.764;2022-09-01T14:57:13;27.90;64.60
35305;DHT22;26433;48.034;-1.764;2022-09-01T15:02:38;28.00;64.20
35305;DHT22;26433;48.034;-1.764;2022-09-01T15:07:43;28.10;64.00
35305;DHT22;26433;48.034;-1.764;2022-09-01T15:12:47;28.10;63.80
35305;DHT22;26433;48.034;-1.764;2022-09-01T15:17:51;28.10;63.90
35305;DHT22;26433;48.034;-1.764;2022-09-01T15:22:57;27.90;64.20
35305;DHT22;26433;48.034;-1.764;2022-09-01T15:28:01;27.70;64.80
35305;DHT22;26433;48.034;-1.764;2022-09-01T15:33:05;27.50;65.20
35305;DHT22;26433;48.034;-1.764;2022-09-01T15:38:17;27.50;65.10
35305;DHT22;26433;48.034;-1.764;2022-09-01T15:43:21;27.70;64.90
35305;DHT22;26433;48.034;-1.764;2022-09-01T15:48:27;27.80;64.60
35305;DHT22;26433;48.034;-1.764;2022-09-01T15:53:32;27.90;64.30
35305;DHT22;26433;48.034;-1.764;2022-09-01T15:58:35;28.00;64.10
35305;DHT22;26433;48.034;-1.764;2022-09-01T16:03:59;27.90;63.90
35305;DHT22;26433;48.034;-1.764;2022-09-01T16:09:05;27.80;63.80
35305;DHT22;26433;48.034;-1.764;2022-09-01T16:14:09;27.70;63.50
35305;DHT22;26433;48.034;-1.764;2022-09-01T16:19:26;27.50;63.20
35305;DHT22;26433;48.034;-1.764;2022-09-01T16:24:41;27.50;63.00
35305;DHT22;26433;48.034;-1.764;2022-09-01T16:29:47;27.50;62.80
35305;DHT22;26433;48.034;-1.764;2022-09-01T16:34:52;27.50;62.70
35305;DHT22;26433;48.034;-1.764;2022-09-01T16:40:02;27.30;62.60
35305;DHT22;26433;48.034;-1.764;2022-09-01T16:45:14;27.10;62.60
35305;DHT22;26433;48.034;-1.764;2022-09-01T16:50:26;26.90;62.80
35305;DHT22;26433;48.034;-1.764;2022-09-01T16:55:39;26.80;63.00
35305;DHT22;26433;48.034;-1.764;2022-09-01T17:01:00;26.80;63.20
35305;DHT22;26433;48.034;-1.764;2022-09-01T17:06:14;26.60;63.20
35305;DHT22;26433;48.034;-1.764;2022-09-01T17:11:28;26.40;63.40
35305;DHT22;26433;48.034;-1.764;2022-09-01T17:16:40;26.30;63.70
35305;DHT22;26433;48.034;-1.764;2022-09-01T17:21:47;26.10;64.00
35305;DHT22;26433;48.034;-1.764;2022-09-01T17:26:58;25.90;64.50
35305;DHT22;26433;48.034;-1.764;2022-09-01T17:32:09;25.60;65.20
35305;DHT22;26433;48.034;-1.764;2022-09-01T17:37:24;25.40;65.60
35305;DHT22;26433;48.034;-1.764;2022-09-01T17:42:38;25.40;65.80
35305;DHT22;26433;48.034;-1.764;2022-09-01T17:47:47;25.30;65.80
35305;DHT22;26433;48.034;-1.764;2022-09-01T17:53:00;25.30;65.90
35305;DHT22;26433;48.034;-1.764;2022-09-01T17:58:22;25.10;66.20
35305;DHT22;26433;48.034;-1.764;2022-09-01T18:03:56;24.90;66.70
35305;DHT22;26433;48.034;-1.764;2022-09-01T18:09:14;24.70;67.40
35305;DHT22;26433;48.034;-1.764;2022-09-01T18:14:26;24.50;67.70
35305;DHT22;26433;48.034;-1.764;2022-09-01T18:19:36;24.40;68.00
35305;DHT22;26433;48.034;-1.764;2022-09-01T18:24:44;24.40;68.20
35305;DHT22;26433;48.034;-1.764;2022-09-01T18:29:54;24.30;68.40
35305;DHT22;26433;48.034;-1.764;2022-09-01T18:35:22;24.30;68.50
35305;DHT22;26433;48.034;-1.764;2022-09-01T18:40:30;24.20;68.90
35305;DHT22;26433;48.034;-1.764;2022-09-01T18:45:42;24.10;69.70
35305;DHT22;26433;48.034;-1.764;2022-09-01T18:50:52;24.00;69.70
35305;DHT22;26433;48.034;-1.764;2022-09-01T18:56:03;23.90;70.10
35305;DHT22;26433;48.034;-1.764;2022-09-01T19:01:14;23.90;70.30
35305;DHT22;26433;48.034;-1.764;2022-09-01T19:06:26;23.90;70.40
35305;DHT22;26433;48.034;-1.764;2022-09-01T19:11:41;23.80;70.70
35305;DHT22;26433;48.034;-1.764;2022-09-01T19:17:01;23.70;71.20
35305;DHT22;26433;48.034;-1.764;2022-09-01T19:22:13;23.60;71.40
35305;DHT22;26433;48.034;-1.764;2022-09-01T19:27:23;23.50;71.60
35305;DHT22;26433;48.034;-1.764;2022-09-01T19:32:30;23.50;72.10
35305;DHT22;26433;48.034;-1.764;2022-09-01T19:37:36;23.40;72.30
35305;DHT22;26433;48.034;-1.764;2022-09-01T19:42:41;23.40;72.50
35305;DHT22;26433;48.034;-1.764;2022-09-01T19:47:52;23.40;72.50
35305;DHT22;26433;48.034;-1.764;2022-09-01T19:53:03;23.30;72.40
35305;DHT22;26433;48.034;-1.764;2022-09-01T19:58:14;23.20;72.80
35305;DHT22;26433;48.034;-1.764;2022-09-01T20:03:24;23.20;73.30
35305;DHT22;26433;48.034;-1.764;2022-09-01T20:08:35;23.10;73.60
35305;DHT22;26433;48.034;-1.764;2022-09-01T20:19:26;22.90;74.50
35305;DHT22;26433;48.034;-1.764;2022-09-01T20:24:34;22.70;75.30
35305;DHT22;26433;48.034;-1.764;2022-09-01T20:29:44;22.80;75.20
35305;DHT22;26433;48.034;-1.764;2022-09-01T20:34:54;22.80;75.00
35305;DHT22;26433;48.034;-1.764;2022-09-01T20:40:05;22.80;75.10
35305;DHT22;26433;48.034;-1.764;2022-09-01T20:45:13;22.80;75.40
35305;DHT22;26433;48.034;-1.764;2022-09-01T20:50:24;22.70;75.60
35305;DHT22;26433;48.034;-1.764;2022-09-01T20:55:36;22.70;75.70
35305;DHT22;26433;48.034;-1.764;2022-09-01T21:00:44;22.60;75.90
35305;DHT22;26433;48.034;-1.764;2022-09-01T21:05:57;22.60;76.30
35305;DHT22;26433;48.034;-1.764;2022-09-01T21:11:17;22.50;76.60
35305;DHT22;26433;48.034;-1.764;2022-09-01T21:16:29;22.50;76.80
35305;DHT22;26433;48.034;-1.764;2022-09-01T21:21:41;22.40;76.90
35305;DHT22;26433;48.034;-1.764;2022-09-01T21:26:47;22.40;77.20
35305;DHT22;26433;48.034;-1.764;2022-09-01T21:31:51;22.30;77.30
35305;DHT22;26433;48.034;-1.764;2022-09-01T21:36:56;22.20;77.60
35305;DHT22;26433;48.034;-1.764;2022-09-01T21:42:00;22.20;77.80
35305;DHT22;26433;48.034;-1.764;2022-09-01T21:47:04;22.20;78.00
35305;DHT22;26433;48.034;-1.764;2022-09-01T21:52:09;22.10;78.20
35305;DHT22;26433;48.034;-1.764;2022-09-01T21:57:13;22.10;78.30
35305;DHT22;26433;48.034;-1.764;2022-09-01T22:02:17;21.90;79.00
35305;DHT22;26433;48.034;-1.764;2022-09-01T22:07:23;21.90;79.30
35305;DHT22;26433;48.034;-1.764;2022-09-01T22:12:26;21.80;79.40
35305;DHT22;26433;48.034;-1.764;2022-09-01T22:17:30;21.80;79.60
35305;DHT22;26433;48.034;-1.764;2022-09-01T22:22:35;21.80;79.80
35305;DHT22;26433;48.034;-1.764;2022-09-01T22:27:39;21.80;80.00
